createdAt,value
2023-05-19T00:00:50.970Z,4107.00
2023-05-19T00:01:50.103Z,4129.00
2023-05-19T00:02:50.162Z,4199.00
2023-05-19T00:03:50.130Z,4112.00
2023-05-19T00:04:50.142Z,4157.00
2023-05-19T00:05:50.172Z,4089.00
2023-05-19T00:06:50.210Z,4112.00
2023-05-19T00:07:50.252Z,4110.00
2023-05-19T00:08:50.267Z,4090.00
2023-05-19T00:09:50.327Z,4148.00
2023-05-19T00:10:50.287Z,4141.00
2023-05-19T00:11:50.305Z,3994.00
2023-05-19T00:12:57.968Z,4044.00
2023-05-19T00:13:50.326Z,4046.00
2023-05-19T00:14:50.314Z,4058.00
2023-05-19T00:15:50.345Z,4098.00
2023-05-19T00:16:50.314Z,4107.00
2023-05-19T00:17:50.343Z,4058.00
2023-05-19T00:18:50.318Z,4117.00
2023-05-19T00:19:50.262Z,4141.00
2023-05-19T00:20:50.311Z,4125.00
2023-05-19T00:21:50.313Z,4069.00
2023-05-19T00:22:50.274Z,4053.00
2023-05-19T00:23:50.282Z,4062.00
2023-05-19T00:24:50.267Z,4077.00
2023-05-19T00:25:50.279Z,4086.00
2023-05-19T00:26:50.275Z,4150.00
2023-05-19T00:27:50.254Z,4011.00
2023-05-19T00:28:50.293Z,3951.00
2023-05-19T00:29:50.225Z,4074.00
2023-05-19T00:30:50.288Z,4069.00
2023-05-19T00:31:50.284Z,4076.00
2023-05-19T00:32:50.219Z,4035.00
2023-05-19T00:33:50.174Z,4068.00
2023-05-19T00:34:50.173Z,3997.00
2023-05-19T00:35:50.184Z,4000.00
2023-05-19T00:36:50.183Z,4016.00
2023-05-19T00:37:50.159Z,4083.00
2023-05-19T00:38:50.155Z,4101.00
2023-05-19T00:39:50.196Z,4065.00
2023-05-19T00:40:50.224Z,4051.00
2023-05-19T00:41:50.303Z,4118.00
2023-05-19T00:42:50.298Z,4109.00
2023-05-19T00:43:50.293Z,4220.00
2023-05-19T00:44:50.383Z,4113.00
2023-05-19T00:45:50.348Z,4095.00
2023-05-19T00:46:50.473Z,4074.00
2023-05-19T00:47:50.449Z,4125.00
2023-05-19T00:48:50.445Z,4150.00
2023-05-19T00:49:50.510Z,4156.00
2023-05-19T00:50:50.480Z,4158.00
2023-05-19T00:51:50.548Z,4089.00
2023-05-19T00:52:50.556Z,4035.00
2023-05-19T00:53:50.558Z,4183.00
2023-05-19T00:54:50.577Z,4148.00
2023-05-19T00:55:50.597Z,4084.00
2023-05-19T00:56:50.610Z,4107.00
2023-05-19T00:57:50.702Z,4086.00
2023-05-19T00:58:50.715Z,4024.00
2023-05-19T00:59:50.738Z,3959.00
2023-05-19T01:00:50.818Z,3991.00
2023-05-19T01:01:50.774Z,3983.00
2023-05-19T01:02:50.845Z,3990.00
2023-05-19T01:03:50.862Z,4061.00
2023-05-19T01:04:50.837Z,4107.00
2023-05-19T01:05:50.893Z,4011.00
2023-05-19T01:06:50.918Z,4110.00
2023-05-19T01:07:50.935Z,3995.00
2023-05-19T01:08:50.953Z,3916.00
2023-05-19T01:09:50.955Z,3881.00
2023-05-19T01:10:50.983Z,3856.00
2023-05-19T01:11:51.074Z,3916.00
2023-05-19T01:12:51.058Z,3893.00
2023-05-19T01:13:51.115Z,3922.00
2023-05-19T01:14:51.117Z,3928.00
2023-05-19T01:15:51.171Z,3928.00
2023-05-19T01:16:51.161Z,3920.00
2023-05-19T01:17:51.263Z,3870.00
2023-05-19T01:18:51.290Z,3938.00
2023-05-19T01:19:51.263Z,3950.00
2023-05-19T01:20:51.326Z,3887.00
2023-05-19T01:21:51.338Z,3898.00
2023-05-19T01:22:51.312Z,3805.00
2023-05-19T01:23:51.377Z,3736.00
2023-05-19T01:24:51.386Z,3758.00
2023-05-19T01:25:51.411Z,3732.00
2023-05-19T01:26:51.511Z,3801.00
2023-05-19T01:27:51.506Z,3859.00
2023-05-19T01:28:51.559Z,3873.00
2023-05-19T01:29:51.564Z,3841.00
2023-05-19T01:30:51.643Z,3809.00
2023-05-19T01:31:51.675Z,3811.00
2023-05-19T01:32:51.737Z,3813.00
2023-05-19T01:33:51.708Z,3819.00
2023-05-19T01:34:51.719Z,3761.00
2023-05-19T01:35:51.772Z,3738.00
2023-05-19T01:36:51.830Z,3714.00
2023-05-19T01:37:51.782Z,3708.00
2023-05-19T01:38:51.792Z,3721.00
2023-05-19T01:39:51.813Z,3762.00
2023-05-19T01:40:51.858Z,3802.00
2023-05-19T01:41:51.907Z,3817.00
2023-05-19T01:42:51.953Z,3825.00
2023-05-19T01:43:51.984Z,3772.00
2023-05-19T01:44:51.983Z,3771.00
2023-05-19T01:45:52.040Z,3805.00
2023-05-19T01:46:52.000Z,3825.00
2023-05-19T01:47:52.069Z,3796.00
2023-05-19T01:48:52.061Z,3776.00
2023-05-19T01:49:52.062Z,3813.00
2023-05-19T01:50:52.099Z,3772.00
2023-05-19T01:51:52.138Z,3839.00
2023-05-19T01:52:52.137Z,3818.00
2023-05-19T01:53:52.202Z,3845.00
2023-05-19T01:54:52.202Z,3811.00
2023-05-19T01:55:52.251Z,3796.00
2023-05-19T01:56:52.311Z,3793.00
2023-05-19T01:57:52.296Z,3808.00
2023-05-19T01:58:52.333Z,3849.00
2023-05-19T01:59:52.358Z,3881.00
2023-05-19T02:00:52.435Z,3872.00
2023-05-19T02:01:52.470Z,3810.00
2023-05-19T02:03:18.269Z,600.00
2023-05-19T02:04:18.362Z,600.00
2023-05-19T02:05:18.294Z,600.00
2023-05-19T02:06:18.355Z,600.00
2023-05-19T02:07:18.354Z,600.00
2023-05-19T02:08:18.350Z,595.00
2023-05-19T02:09:18.426Z,604.00
2023-05-19T02:10:18.421Z,619.00
2023-05-19T02:11:18.423Z,654.00
2023-05-19T02:12:18.480Z,644.00
2023-05-19T02:13:18.504Z,628.00
2023-05-19T02:14:18.495Z,659.00
2023-05-19T02:15:18.577Z,658.00
2023-05-19T02:16:18.692Z,656.00
2023-05-19T02:17:18.612Z,666.00
2023-05-19T02:18:18.632Z,693.00
2023-05-19T02:19:18.719Z,707.00
2023-05-19T02:20:18.688Z,718.00
2023-05-19T02:21:18.741Z,730.00
2023-05-19T02:22:18.749Z,824.00
2023-05-19T02:23:18.788Z,818.00
2023-05-19T02:24:18.771Z,775.00
2023-05-19T02:25:18.854Z,769.00
2023-05-19T02:26:18.844Z,711.00
2023-05-19T02:27:18.882Z,764.00
2023-05-19T02:28:18.947Z,808.00
2023-05-19T02:29:19.011Z,791.00
2023-05-19T02:30:19.007Z,794.00
2023-05-19T02:31:19.127Z,802.00
2023-05-19T02:32:19.131Z,807.00
2023-05-19T02:33:19.049Z,794.00
2023-05-19T02:34:19.103Z,756.00
2023-05-19T02:35:19.134Z,778.00
2023-05-19T02:36:19.159Z,899.00
2023-05-19T02:37:19.188Z,920.00
2023-05-19T02:38:19.155Z,905.00
2023-05-19T02:39:19.284Z,871.00
2023-05-19T02:40:19.243Z,905.00
2023-05-19T02:41:19.247Z,985.00
2023-05-19T02:42:19.245Z,1057.00
2023-05-19T02:43:19.266Z,936.00
2023-05-19T02:44:19.264Z,851.00
2023-05-19T02:45:19.284Z,989.00
2023-05-19T02:46:19.358Z,966.00
2023-05-19T02:47:19.320Z,1011.00
2023-05-19T02:48:19.365Z,998.00
2023-05-19T02:49:19.397Z,1061.00
2023-05-19T02:50:19.395Z,1151.00
2023-05-19T02:51:19.412Z,992.00
2023-05-19T02:52:19.418Z,1018.00
2023-05-19T02:53:19.431Z,1034.00
2023-05-19T02:54:19.437Z,1032.00
2023-05-19T02:55:19.502Z,1030.00
2023-05-19T02:56:19.547Z,1065.00
2023-05-19T02:57:19.547Z,1080.00
2023-05-19T02:58:19.562Z,1099.00
2023-05-19T02:59:19.621Z,1091.00
2023-05-19T03:00:19.627Z,1126.00
2023-05-19T03:01:19.702Z,1187.00
2023-05-19T03:02:19.740Z,1145.00
2023-05-19T03:03:19.937Z,1198.00
2023-05-19T03:04:19.864Z,1223.00
2023-05-19T03:05:19.870Z,1261.00
2023-05-19T03:06:19.929Z,1210.00
2023-05-19T03:07:19.989Z,1280.00
2023-05-19T03:08:20.052Z,1241.00
2023-05-19T03:09:20.055Z,1196.00
2023-05-19T03:10:20.099Z,1244.00
2023-05-19T03:11:20.155Z,1231.00
2023-05-19T03:12:20.222Z,1278.00
2023-05-19T03:13:20.233Z,1278.00
2023-05-19T03:14:20.293Z,1170.00
2023-05-19T03:15:20.297Z,1231.00
2023-05-19T03:16:20.374Z,1288.00
2023-05-19T03:17:20.448Z,1314.00
2023-05-19T03:18:20.483Z,1343.00
2023-05-19T03:19:20.516Z,1354.00
2023-05-19T03:20:20.509Z,1317.00
2023-05-19T03:21:20.544Z,1218.00
2023-05-19T03:22:20.566Z,1254.00
2023-05-19T03:23:43.075Z,600.00
2023-05-19T03:24:43.112Z,600.00
2023-05-19T03:25:43.097Z,600.00
2023-05-19T03:26:43.115Z,600.00
2023-05-19T03:27:43.052Z,600.00
2023-05-19T03:28:43.459Z,600.00
2023-05-19T03:29:43.029Z,604.00
2023-05-19T03:30:43.072Z,601.00
2023-05-19T03:31:43.043Z,622.00
2023-05-19T03:32:43.108Z,656.00
2023-05-19T03:33:43.083Z,705.00
2023-05-19T03:34:43.020Z,671.00
2023-05-19T03:35:43.005Z,694.00
2023-05-19T03:36:43.033Z,736.00
2023-05-19T03:37:42.984Z,738.00
2023-05-19T03:38:43.022Z,761.00
2023-05-19T03:39:42.944Z,668.00
2023-05-19T03:40:42.982Z,660.00
2023-05-19T03:41:42.966Z,667.00
2023-05-19T03:42:43.010Z,692.00
2023-05-19T03:43:42.957Z,674.00
2023-05-19T03:44:42.921Z,655.00
2023-05-19T03:45:42.965Z,655.00
2023-05-19T03:46:42.941Z,681.00
2023-05-19T03:47:42.926Z,656.00
2023-05-19T03:48:42.892Z,632.00
2023-05-19T03:49:42.975Z,599.00
2023-05-19T03:50:42.905Z,604.00
2023-05-19T03:51:42.925Z,634.00
2023-05-19T03:52:42.869Z,659.00
2023-05-19T03:53:42.876Z,660.00
2023-05-19T03:54:42.890Z,741.00
2023-05-19T03:55:42.851Z,742.00
2023-05-19T03:56:42.856Z,749.00
2023-05-19T03:57:42.845Z,765.00
2023-05-19T03:58:42.821Z,768.00
2023-05-19T03:59:42.831Z,699.00
2023-05-19T04:00:42.857Z,708.00
2023-05-19T04:01:42.935Z,659.00
2023-05-19T04:02:42.920Z,714.00
2023-05-19T04:03:42.830Z,662.00
2023-05-19T04:04:42.833Z,695.00
2023-05-19T04:05:42.824Z,700.00
2023-05-19T04:06:42.792Z,667.00
2023-05-19T04:07:44.852Z,678.00
2023-05-19T04:08:42.780Z,685.00
2023-05-19T04:09:42.764Z,668.00
2023-05-19T04:10:42.760Z,686.00
2023-05-19T04:11:42.826Z,792.00
2023-05-19T04:12:42.742Z,879.00
2023-05-19T04:13:43.415Z,799.00
2023-05-19T04:14:42.718Z,813.00
2023-05-19T04:15:42.757Z,842.00
2023-05-19T04:16:42.735Z,835.00
2023-05-19T04:17:42.705Z,902.00
2023-05-19T04:18:42.688Z,897.00
2023-05-19T04:19:42.712Z,899.00
2023-05-19T04:20:42.724Z,906.00
2023-05-19T04:21:42.724Z,956.00
2023-05-19T04:22:42.780Z,1056.00
2023-05-19T04:23:42.771Z,946.00
2023-05-19T04:24:42.792Z,975.00
2023-05-19T04:25:42.802Z,982.00
2023-05-19T04:26:42.859Z,982.00
2023-05-19T04:27:42.902Z,992.00
2023-05-19T04:28:42.931Z,1013.00
2023-05-19T04:29:42.926Z,969.00
2023-05-19T04:30:42.966Z,962.00
2023-05-19T04:31:43.025Z,991.00
2023-05-19T04:32:42.946Z,1012.00
2023-05-19T04:33:42.957Z,939.00
2023-05-19T04:34:43.010Z,805.00
2023-05-19T04:35:43.013Z,769.00
2023-05-19T04:36:43.073Z,799.00
2023-05-19T04:37:43.078Z,800.00
2023-05-19T04:38:43.093Z,854.00
2023-05-19T04:39:43.161Z,864.00
2023-05-19T04:40:43.105Z,835.00
2023-05-19T04:41:43.128Z,852.00
2023-05-19T04:42:43.165Z,876.00
2023-05-19T04:43:43.168Z,906.00
2023-05-19T04:44:43.193Z,909.00
2023-05-19T04:45:43.229Z,909.00
2023-05-19T04:46:43.298Z,853.00
2023-05-19T04:47:43.266Z,789.00
2023-05-19T04:48:43.266Z,820.00
2023-05-19T04:49:43.288Z,748.00
2023-05-19T04:50:43.273Z,724.00
2023-05-19T04:51:43.355Z,699.00
2023-05-19T04:52:43.399Z,720.00
2023-05-19T04:53:43.425Z,653.00
2023-05-19T04:54:43.446Z,690.00
2023-05-19T04:55:43.577Z,735.00
2023-05-19T04:56:43.543Z,663.00
2023-05-19T04:57:43.512Z,653.00
2023-05-19T04:58:43.588Z,632.00
2023-05-19T04:59:43.641Z,640.00
2023-05-19T05:00:43.646Z,720.00
2023-05-19T05:01:43.731Z,655.00
2023-05-19T05:02:43.796Z,620.00
2023-05-19T05:03:43.810Z,600.00
2023-05-19T05:04:43.713Z,602.00
2023-05-19T05:05:43.745Z,598.00
2023-05-19T05:06:43.763Z,604.00
2023-05-19T05:07:43.765Z,624.00
2023-05-19T05:08:44.779Z,634.00
2023-05-19T05:09:43.823Z,669.00
2023-05-19T05:10:43.861Z,713.00
2023-05-19T05:11:43.917Z,803.00
2023-05-19T05:12:43.923Z,737.00
2023-05-19T05:13:43.940Z,674.00
2023-05-19T05:14:43.951Z,624.00
2023-05-19T05:15:43.986Z,623.00
2023-05-19T05:16:44.217Z,605.00
2023-05-19T05:17:44.088Z,602.00
2023-05-19T05:18:45.025Z,586.00
2023-05-19T05:19:44.091Z,620.00
2023-05-19T05:20:44.101Z,618.00
2023-05-19T05:21:44.099Z,562.00
2023-05-19T05:22:44.082Z,587.00
2023-05-19T05:23:44.156Z,601.00
2023-05-19T05:24:44.130Z,597.00
2023-05-19T05:25:44.232Z,594.00
2023-05-19T05:26:44.215Z,663.00
2023-05-19T05:27:44.255Z,630.00
2023-05-19T05:28:44.237Z,638.00
2023-05-19T05:29:44.281Z,635.00
2023-05-19T05:30:44.300Z,657.00
2023-05-19T05:31:44.376Z,703.00
2023-05-19T05:32:44.485Z,734.00
2023-05-19T05:33:44.416Z,697.00
2023-05-19T05:34:44.381Z,651.00
2023-05-19T05:35:44.461Z,763.00
2023-05-19T05:36:44.510Z,730.00
2023-05-19T05:37:44.530Z,736.00
2023-05-19T05:38:44.550Z,812.00
2023-05-19T05:39:44.541Z,815.00
2023-05-19T05:40:44.595Z,799.00
2023-05-19T05:41:44.651Z,796.00
2023-05-19T05:42:44.676Z,836.00
2023-05-19T05:43:44.746Z,866.00
2023-05-19T05:44:44.754Z,819.00
2023-05-19T05:45:44.811Z,746.00
2023-05-19T05:46:44.805Z,880.00
2023-05-19T05:47:44.862Z,847.00
2023-05-19T05:48:44.880Z,802.00
2023-05-19T05:49:44.884Z,777.00
2023-05-19T05:50:44.904Z,730.00
2023-05-19T05:51:57.918Z,764.00
2023-05-19T05:52:45.927Z,764.00
2023-05-19T05:53:44.924Z,749.00
2023-05-19T05:54:44.939Z,731.00
2023-05-19T05:55:44.900Z,777.00
2023-05-19T05:56:44.921Z,897.00
2023-05-19T05:57:44.904Z,844.00
2023-05-19T05:58:44.874Z,813.00
2023-05-19T05:59:44.882Z,838.00
2023-05-19T06:00:45.287Z,871.00
2023-05-19T06:01:44.909Z,871.00
2023-05-19T06:02:44.972Z,872.00
2023-05-19T06:03:44.941Z,802.00
2023-05-19T06:04:44.837Z,776.00
2023-05-19T06:05:44.894Z,820.00
2023-05-19T06:06:44.846Z,793.00
2023-05-19T06:07:44.834Z,736.00
2023-05-19T06:08:44.888Z,782.00
2023-05-19T06:09:44.932Z,893.00
2023-05-19T06:10:47.200Z,997.00
2023-05-19T06:11:45.165Z,887.00
2023-05-19T06:12:45.143Z,908.00
2023-05-19T06:13:45.363Z,1102.00
2023-05-19T06:14:45.206Z,1259.00
2023-05-19T06:15:45.365Z,1178.00
2023-05-19T06:16:45.329Z,1009.00
2023-05-19T06:17:45.374Z,1009.00
2023-05-19T06:18:45.405Z,774.00
2023-05-19T06:19:45.420Z,862.00
2023-05-19T06:20:45.431Z,895.00
2023-05-19T06:21:45.450Z,802.00
2023-05-19T06:22:45.457Z,843.00
2023-05-19T06:23:45.525Z,835.00
2023-05-19T06:24:45.611Z,891.00
2023-05-19T06:25:45.593Z,886.00
2023-05-19T06:26:45.624Z,802.00
2023-05-19T06:27:45.666Z,862.00
2023-05-19T06:28:45.663Z,770.00
2023-05-19T06:29:45.733Z,626.00
2023-05-19T06:30:45.743Z,590.00
2023-05-19T06:31:45.849Z,632.00
2023-05-19T06:32:45.868Z,661.00
2023-05-19T06:33:45.864Z,653.00
2023-05-19T06:34:45.846Z,793.00
2023-05-19T06:35:45.846Z,636.00
2023-05-19T06:36:45.909Z,610.00
2023-05-19T06:37:45.889Z,641.00
2023-05-19T06:38:45.951Z,726.00
2023-05-19T06:39:45.985Z,661.00
2023-05-19T06:40:45.968Z,720.00
2023-05-19T06:41:45.987Z,658.00
2023-05-19T06:42:46.013Z,631.00
2023-05-19T06:43:46.048Z,617.00
2023-05-19T06:44:46.112Z,610.00
2023-05-19T06:45:46.135Z,649.00
2023-05-19T06:46:46.292Z,791.00
2023-05-19T06:47:46.416Z,584.00
2023-05-19T06:48:46.296Z,479.00
2023-05-19T06:49:46.287Z,488.00
2023-05-19T06:50:46.303Z,527.00
2023-05-19T06:51:46.370Z,524.00
2023-05-19T06:52:46.408Z,514.00
2023-05-19T06:53:46.518Z,510.00
2023-05-19T06:54:46.438Z,569.00
2023-05-19T06:55:58.130Z,635.00
2023-05-19T06:56:47.508Z,610.00
2023-05-19T06:57:46.537Z,641.00
2023-05-19T06:58:46.524Z,610.00
2023-05-19T06:59:46.476Z,627.00
2023-05-19T07:00:46.457Z,592.00
2023-05-19T07:01:46.481Z,624.00
2023-05-19T07:02:46.577Z,840.00
2023-05-19T07:03:46.534Z,626.00
2023-05-19T07:04:46.448Z,504.00
2023-05-19T07:05:46.444Z,507.00
2023-05-19T07:06:46.465Z,400.00
2023-05-19T07:07:46.434Z,400.00
2023-05-19T07:08:46.400Z,400.00
2023-05-19T07:10:16.527Z,600.00
2023-05-19T07:11:16.489Z,600.00
2023-05-19T07:12:16.560Z,600.00
2023-05-19T07:13:16.538Z,600.00
2023-05-19T07:14:16.520Z,600.00
2023-05-19T07:15:16.532Z,847.00
2023-05-19T07:16:16.580Z,618.00
2023-05-19T07:17:16.510Z,617.00
2023-05-19T07:18:16.536Z,600.00
2023-05-19T07:19:16.572Z,647.00
2023-05-19T07:20:16.505Z,674.00
2023-05-19T07:21:16.486Z,596.00
2023-05-19T07:22:16.479Z,521.00
2023-05-19T07:23:17.450Z,523.00
2023-05-19T07:24:16.473Z,532.00
2023-05-19T07:25:16.475Z,582.00
2023-05-19T07:26:16.469Z,619.00
2023-05-19T07:27:16.494Z,600.00
2023-05-19T07:28:16.462Z,687.00
2023-05-19T07:29:16.457Z,726.00
2023-05-19T07:30:16.405Z,718.00
2023-05-19T07:31:16.440Z,863.00
2023-05-19T07:32:16.547Z,797.00
2023-05-19T07:33:16.467Z,895.00
2023-05-19T07:34:16.383Z,767.00
2023-05-19T07:35:16.422Z,762.00
2023-05-19T07:36:16.410Z,660.00
2023-05-19T07:37:16.406Z,606.00
2023-05-19T07:38:16.345Z,600.00
2023-05-19T07:39:16.391Z,615.00
2023-05-19T07:40:16.337Z,625.00
2023-05-19T07:41:16.329Z,675.00
2023-05-19T07:42:16.340Z,931.00
2023-05-19T07:43:16.333Z,822.00
2023-05-19T07:44:16.298Z,790.00
2023-05-19T07:45:16.315Z,805.00
2023-05-19T07:46:16.393Z,865.00
2023-05-19T07:47:16.324Z,793.00
2023-05-19T07:48:16.304Z,837.00
2023-05-19T07:49:16.286Z,811.00
2023-05-19T07:50:16.335Z,869.00
2023-05-19T07:51:16.309Z,874.00
2023-05-19T07:52:16.268Z,888.00
2023-05-19T07:53:16.273Z,1036.00
2023-05-19T07:54:16.211Z,1035.00
2023-05-19T07:55:16.244Z,920.00
2023-05-19T07:56:16.218Z,795.00
2023-05-19T07:57:16.225Z,713.00
2023-05-19T07:58:16.197Z,651.00
2023-05-19T07:59:16.208Z,767.00
2023-05-19T08:00:16.229Z,804.00
2023-05-19T08:01:16.211Z,815.00
2023-05-19T08:02:16.257Z,607.00
2023-05-19T08:03:16.447Z,595.00
2023-05-19T08:04:16.329Z,563.00
2023-05-19T08:05:16.228Z,492.00
2023-05-19T08:06:16.265Z,533.00
2023-05-19T08:07:16.326Z,626.00
2023-05-19T08:08:16.318Z,793.00
2023-05-19T08:09:16.387Z,701.00
2023-05-19T08:10:16.433Z,590.00
2023-05-19T08:11:16.436Z,608.00
2023-05-19T08:12:16.493Z,536.00
2023-05-19T08:13:16.437Z,524.00
2023-05-19T08:14:16.472Z,635.00
2023-05-19T08:15:16.558Z,649.00
2023-05-19T08:16:16.604Z,745.00
2023-05-19T08:17:16.613Z,829.00
2023-05-19T08:18:16.564Z,869.00
2023-05-19T08:19:16.727Z,800.00
2023-05-19T08:20:16.697Z,883.00
2023-05-19T08:21:16.772Z,811.00
2023-05-19T08:22:16.769Z,842.00
2023-05-19T08:23:16.775Z,617.00
2023-05-19T08:24:16.839Z,609.00
2023-05-19T08:25:16.837Z,635.00
2023-05-19T08:26:16.897Z,787.00
2023-05-19T08:27:16.910Z,737.00
2023-05-19T08:28:16.924Z,600.00
2023-05-19T08:29:16.922Z,594.00
2023-05-19T08:30:16.922Z,601.00
2023-05-19T08:31:17.002Z,618.00
2023-05-19T08:32:17.025Z,617.00
2023-05-19T08:33:17.054Z,474.00
2023-05-19T08:34:17.093Z,518.00
2023-05-19T08:35:17.177Z,575.00
2023-05-19T08:36:17.178Z,648.00
2023-05-19T08:37:17.183Z,601.00
2023-05-19T08:38:17.248Z,603.00
2023-05-19T08:39:17.254Z,616.00
2023-05-19T08:40:17.267Z,600.00
2023-05-19T08:41:17.296Z,648.00
2023-05-19T08:42:17.350Z,701.00
2023-05-19T08:43:17.416Z,732.00
2023-05-19T08:44:19.002Z,708.00
2023-05-19T08:45:17.450Z,799.00
2023-05-19T08:46:17.510Z,624.00
2023-05-19T08:47:20.336Z,614.00
2023-05-19T08:48:17.544Z,663.00
2023-05-19T08:49:17.513Z,798.00
2023-05-19T08:50:17.524Z,791.00
2023-05-19T08:51:17.493Z,784.00
2023-05-19T08:52:17.491Z,710.00
2023-05-19T08:53:31.962Z,1018.00
2023-05-19T08:54:18.456Z,1028.00
2023-05-19T08:55:17.482Z,1057.00
2023-05-19T08:56:17.435Z,1028.00
2023-05-19T08:57:17.452Z,972.00
2023-05-19T08:58:17.453Z,812.00
2023-05-19T08:59:17.444Z,937.00
2023-05-19T09:00:17.437Z,1212.00
2023-05-19T09:01:17.479Z,1307.00
2023-05-19T09:02:17.447Z,1157.00
2023-05-19T09:03:23.271Z,1195.00
2023-05-19T09:04:18.464Z,1170.00
2023-05-19T09:05:17.371Z,1229.00
2023-05-19T09:06:17.419Z,1258.00
2023-05-19T09:07:17.389Z,1399.00
2023-05-19T09:08:17.416Z,1510.00
2023-05-19T09:09:17.365Z,1377.00
2023-05-19T09:10:17.327Z,1437.00
2023-05-19T09:11:17.349Z,1754.00
2023-05-19T09:12:17.347Z,1930.00
2023-05-19T09:13:17.354Z,1710.00
2023-05-19T09:14:17.363Z,1733.00
2023-05-19T09:15:17.342Z,1670.00
2023-05-19T09:16:17.294Z,1752.00
2023-05-19T09:17:17.344Z,1673.00
2023-05-19T09:18:17.309Z,1552.00
2023-05-19T09:19:17.375Z,1692.00
2023-05-19T09:20:17.366Z,1599.00
2023-05-19T09:21:17.419Z,1259.00
2023-05-19T09:22:17.493Z,1361.00
2023-05-19T09:23:17.479Z,1880.00
2023-05-19T09:24:17.558Z,1995.00
2023-05-19T09:25:17.537Z,1351.00
2023-05-19T09:26:17.569Z,1248.00
2023-05-19T09:27:17.612Z,1313.00
2023-05-19T09:28:17.652Z,1030.00
2023-05-19T09:29:17.639Z,931.00
2023-05-19T09:30:17.708Z,973.00
2023-05-19T09:31:18.662Z,996.00
2023-05-19T09:32:17.748Z,925.00
2023-05-19T09:33:18.662Z,963.00
2023-05-19T09:34:17.767Z,1096.00
2023-05-19T09:35:17.799Z,770.00
2023-05-19T09:36:17.816Z,939.00
2023-05-19T09:37:17.930Z,833.00
2023-05-19T09:38:17.902Z,800.00
2023-05-19T09:39:17.925Z,641.00
2023-05-19T09:40:18.027Z,663.00
2023-05-19T09:41:18.015Z,743.00
2023-05-19T09:42:18.028Z,922.00
2023-05-19T09:43:18.073Z,727.00
2023-05-19T09:44:18.067Z,962.00
2023-05-19T09:45:18.112Z,1244.00
2023-05-19T09:46:18.209Z,912.00
2023-05-19T09:47:18.228Z,849.00
2023-05-19T09:48:18.284Z,957.00
2023-05-19T09:49:18.279Z,1093.00
2023-05-19T09:50:18.411Z,1055.00
2023-05-19T09:51:19.252Z,885.00
2023-05-19T09:52:18.351Z,978.00
2023-05-19T09:53:18.365Z,858.00
2023-05-19T09:54:18.398Z,841.00
2023-05-19T09:55:18.376Z,876.00
2023-05-19T09:56:18.416Z,753.00
2023-05-19T09:57:18.441Z,633.00
2023-05-19T09:58:18.498Z,731.00
2023-05-19T09:59:18.497Z,602.00
2023-05-19T10:00:18.634Z,516.00
2023-05-19T10:01:18.617Z,628.00
2023-05-19T10:02:18.612Z,631.00
2023-05-19T10:03:18.597Z,597.00
2023-05-19T10:04:18.615Z,604.00
2023-05-19T10:05:19.766Z,630.00
2023-05-19T10:06:18.696Z,606.00
2023-05-19T10:07:18.749Z,607.00
2023-05-19T10:08:18.751Z,583.00
2023-05-19T10:09:18.823Z,599.00
2023-05-19T10:10:18.823Z,587.00
2023-05-19T10:11:18.867Z,616.00
2023-05-19T10:12:18.881Z,601.00
2023-05-19T10:13:18.951Z,600.00
2023-05-19T10:14:18.961Z,603.00
2023-05-19T10:15:20.552Z,810.00
2023-05-19T10:16:19.038Z,805.00
2023-05-19T10:17:19.023Z,1019.00
2023-05-19T10:18:18.987Z,816.00
2023-05-19T10:19:19.020Z,1014.00
2023-05-19T10:20:19.066Z,934.00
2023-05-19T10:21:18.954Z,1008.00
2023-05-19T10:22:19.022Z,970.00
2023-05-19T10:23:18.944Z,1071.00
2023-05-19T10:24:18.967Z,1170.00
2023-05-19T10:25:18.929Z,1302.00
2023-05-19T10:26:18.960Z,1416.00
2023-05-19T10:27:18.956Z,1357.00
2023-05-19T10:28:18.950Z,1428.00
2023-05-19T10:29:18.891Z,1534.00
2023-05-19T10:30:18.908Z,1814.00
2023-05-19T10:31:18.995Z,1658.00
2023-05-19T10:32:18.932Z,1486.00
2023-05-19T10:33:18.912Z,1628.00
2023-05-19T10:34:18.854Z,1665.00
2023-05-19T10:35:18.868Z,1685.00
2023-05-19T10:36:18.891Z,1814.00
2023-05-19T10:37:18.864Z,1683.00
2023-05-19T10:38:18.866Z,1659.00
2023-05-19T10:39:18.891Z,1680.00
2023-05-19T10:40:18.822Z,1823.00
2023-05-19T10:41:18.840Z,1856.00
2023-05-19T10:42:18.850Z,1839.00
2023-05-19T10:43:18.782Z,1900.00
2023-05-19T10:44:18.807Z,1692.00
2023-05-19T10:45:18.796Z,1622.00
2023-05-19T10:46:18.827Z,1522.00
2023-05-19T10:47:18.845Z,1542.00
2023-05-19T10:48:19.216Z,1601.00
2023-05-19T10:49:18.772Z,1612.00
2023-05-19T10:50:18.738Z,1720.00
2023-05-19T10:51:18.759Z,1747.00
2023-05-19T10:52:18.770Z,1729.00
2023-05-19T10:53:18.745Z,1741.00
2023-05-19T10:54:18.761Z,1755.00
2023-05-19T10:55:18.732Z,1655.00
2023-05-19T10:56:18.742Z,1699.00
2023-05-19T10:57:18.749Z,1849.00
2023-05-19T10:58:18.694Z,1578.00
2023-05-19T10:59:18.696Z,1538.00
2023-05-19T11:00:18.655Z,1317.00
2023-05-19T11:01:18.753Z,1264.00
2023-05-19T11:02:18.690Z,1247.00
2023-05-19T11:03:18.747Z,1182.00
2023-05-19T11:04:18.710Z,1261.00
2023-05-19T11:05:18.664Z,1419.00
2023-05-19T11:06:18.669Z,1503.00
2023-05-19T11:07:18.667Z,1436.00
2023-05-19T11:08:18.642Z,1626.00
2023-05-19T11:09:19.514Z,1707.00
2023-05-19T11:10:18.650Z,1782.00
2023-05-19T11:11:18.585Z,1722.00
2023-05-19T11:12:18.690Z,1638.00
2023-05-19T11:13:18.665Z,1433.00
2023-05-19T11:14:18.751Z,1286.00
2023-05-19T11:15:18.671Z,1265.00
2023-05-19T11:16:18.836Z,1340.00
2023-05-19T11:17:18.785Z,1449.00
2023-05-19T11:18:18.796Z,1443.00
2023-05-19T11:19:18.857Z,1475.00
2023-05-19T11:20:18.852Z,1518.00
2023-05-19T11:21:18.910Z,1353.00
2023-05-19T11:22:18.844Z,1394.00
2023-05-19T11:23:18.947Z,1338.00
2023-05-19T11:24:18.911Z,1514.00
2023-05-19T11:25:18.908Z,1288.00
2023-05-19T11:26:18.980Z,1100.00
2023-05-19T11:27:19.028Z,971.00
2023-05-19T11:28:19.105Z,981.00
2023-05-19T11:29:19.108Z,822.00
2023-05-19T11:30:19.122Z,961.00
2023-05-19T11:31:19.162Z,1028.00
2023-05-19T11:32:19.234Z,1109.00
2023-05-19T11:33:19.268Z,1075.00
2023-05-19T11:34:19.209Z,1155.00
2023-05-19T11:35:19.227Z,1346.00
2023-05-19T11:36:19.250Z,1086.00
2023-05-19T11:37:19.324Z,1275.00
2023-05-19T11:38:19.333Z,970.00
2023-05-19T11:39:19.337Z,995.00
2023-05-19T11:40:19.336Z,873.00
2023-05-19T11:41:20.766Z,1041.00
2023-05-19T11:42:19.455Z,908.00
2023-05-19T11:43:19.521Z,983.00
2023-05-19T11:44:19.529Z,920.00
2023-05-19T11:45:19.506Z,1003.00
2023-05-19T11:46:19.592Z,882.00
2023-05-19T11:47:19.630Z,879.00
2023-05-19T11:48:19.733Z,899.00
2023-05-19T11:49:19.677Z,697.00
2023-05-19T11:50:19.850Z,726.00
2023-05-19T11:51:19.694Z,632.00
2023-05-19T11:52:19.737Z,640.00
2023-05-19T11:53:19.941Z,664.00
2023-05-19T11:54:19.696Z,645.00
2023-05-19T11:55:19.740Z,624.00
2023-05-19T11:56:19.670Z,768.00
2023-05-19T11:57:19.664Z,710.00
2023-05-19T11:58:19.663Z,674.00
2023-05-19T11:59:19.665Z,714.00
2023-05-19T12:00:19.647Z,662.00
2023-05-19T12:01:19.625Z,694.00
2023-05-19T12:02:19.703Z,562.00
2023-05-19T12:03:19.889Z,566.00
2023-05-19T12:04:19.771Z,586.00
2023-05-19T12:05:19.840Z,599.00
2023-05-19T12:06:19.848Z,603.00
2023-05-19T12:07:19.851Z,606.00
2023-05-19T12:08:19.917Z,589.00
2023-05-19T12:09:19.935Z,591.00
2023-05-19T12:10:19.961Z,574.00
2023-05-19T12:11:20.112Z,595.00
2023-05-19T12:12:20.012Z,622.00
2023-05-19T12:13:19.984Z,533.00
2023-05-19T12:14:20.069Z,573.00
2023-05-19T12:15:20.086Z,620.00
2023-05-19T12:16:20.166Z,587.00
2023-05-19T12:17:20.122Z,541.00
2023-05-19T12:18:20.187Z,577.00
2023-05-19T12:19:20.289Z,647.00
2023-05-19T12:20:20.231Z,666.00
2023-05-19T12:21:20.230Z,784.00